createdAt,value
2022-12-20T00:02:26.051Z,98547.63
2022-12-20T00:07:28.656Z,98543.94
2022-12-20T00:12:30.725Z,98539.72
2022-12-20T00:17:33.040Z,98541.66
2022-12-20T00:22:35.081Z,98527.31
2022-12-20T00:27:37.150Z,98518.75
2022-12-20T00:32:39.146Z,98515.28
2022-12-20T00:37:41.218Z,98519.28
2022-12-20T00:42:43.209Z,98507.69
2022-12-20T00:47:46.943Z,98513.13
2022-12-20T00:52:49.039Z,98523.88
2022-12-20T00:57:51.053Z,98496.13
2022-12-20T01:02:53.186Z,98507.72
2022-12-20T01:07:55.427Z,98513.13
2022-12-20T01:12:58.185Z,98521.59
2022-12-20T01:18:00.163Z,98541.94
2022-12-20T01:23:02.094Z,98538.56
2022-12-20T01:28:04.428Z,98527.81
2022-12-20T01:33:06.436Z,98534.72
2022-12-20T01:38:08.443Z,98525.50
2022-12-20T01:43:15.258Z,98527.59
2022-12-20T01:48:26.023Z,98518.28
2022-12-20T01:53:28.361Z,98507.50
2022-12-20T01:58:32.581Z,98525.38
2022-12-20T02:03:34.723Z,98484.59
2022-12-20T02:08:36.917Z,98487.59
2022-12-20T02:13:57.204Z,98490.34
2022-12-20T02:19:21.852Z,98487.59
2022-12-20T02:24:44.571Z,98484.13
2022-12-20T02:30:10.362Z,98469.81
2022-12-20T02:35:20.317Z,98468.19
2022-12-20T02:40:32.440Z,98466.91
2022-12-20T02:45:37.768Z,98464.09
2022-12-20T02:50:51.308Z,98461.69
2022-12-20T02:56:25.870Z,98446.97
2022-12-20T03:01:37.861Z,98444.75
2022-12-20T03:07:06.241Z,98438.56
2022-12-20T03:12:14.713Z,98427.09
2022-12-20T03:17:16.852Z,98447.91
2022-12-20T03:22:19.104Z,98435.63
2022-12-20T03:27:21.139Z,98410.91
2022-12-20T03:32:23.402Z,98402.16
2022-12-20T03:37:26.559Z,98404.97
2022-12-20T03:42:29.349Z,98402.69
2022-12-20T03:47:32.110Z,98421.22
2022-12-20T03:52:37.626Z,98418.91
2022-12-20T03:57:42.151Z,98412.78
2022-12-20T04:02:58.638Z,98407.78
2022-12-20T04:08:02.225Z,98407.41
2022-12-20T04:13:04.615Z,98385.81
2022-12-20T04:18:07.044Z,98388.50
2022-12-20T04:23:09.224Z,98380.03
2022-12-20T04:28:11.856Z,98376.56
2022-12-20T04:33:14.707Z,98395.84
2022-12-20T04:38:18.301Z,98394.69
2022-12-20T04:43:24.189Z,98367.28
2022-12-20T04:48:56.103Z,98366.50
2022-12-20T04:53:52.916Z,98357.28
2022-12-20T04:59:05.620Z,98359.59
2022-12-20T05:04:09.249Z,98361.91
2022-12-20T05:09:12.570Z,98355.69
2022-12-20T05:14:14.942Z,98347.19
2022-12-20T05:19:17.180Z,98340.56
2022-12-20T05:24:38.375Z,98339.47
2022-12-20T05:29:52.342Z,98328.69
2022-12-20T05:34:56.843Z,98337.16
2022-12-20T05:39:59.661Z,98336.44
2022-12-20T05:45:03.128Z,98326.41
2022-12-20T05:50:15.037Z,98326.00
2022-12-20T05:55:54.491Z,98300.91
2022-12-20T06:01:04.366Z,98302.84
2022-12-20T06:06:14.596Z,98305.50
2022-12-20T06:11:22.047Z,98304.00
2022-12-20T06:16:36.352Z,98316.34
2022-12-20T06:21:40.338Z,98315.56
2022-12-20T06:26:44.808Z,98316.34
2022-12-20T06:31:48.631Z,98309.34
2022-12-20T06:36:51.310Z,98310.47
2022-12-20T06:41:57.505Z,98322.47
2022-12-20T06:47:01.934Z,98320.16
2022-12-20T06:52:05.526Z,98327.13
2022-12-20T06:57:36.822Z,98320.50
2022-12-20T07:02:39.726Z,98312.00
2022-12-20T07:07:45.099Z,98317.69
2022-12-20T07:12:48.703Z,98303.75
2022-12-20T07:17:51.626Z,98312.25
2022-12-20T07:22:53.827Z,98310.72
2022-12-20T07:27:56.186Z,98316.84
2022-12-20T07:32:59.147Z,98312.22
2022-12-20T07:38:01.430Z,98308.25
2022-12-20T07:43:03.459Z,98307.31
2022-12-20T07:48:12.352Z,98302.53
2022-12-20T07:53:18.081Z,98300.91
2022-12-20T07:58:21.609Z,98298.47
2022-12-20T08:03:31.918Z,98308.44
2022-12-20T08:08:41.029Z,98308.47
2022-12-20T08:13:46.604Z,98307.91
2022-12-20T08:18:49.579Z,98303.09
2022-12-20T08:23:52.073Z,98293.44
2022-12-20T08:28:55.885Z,98286.75
2022-12-20T08:33:58.492Z,98271.75
2022-12-20T08:39:08.031Z,98265.38
2022-12-20T08:44:10.886Z,98273.06
2022-12-20T08:49:13.013Z,98267.19
2022-12-20T08:54:15.165Z,98255.53
2022-12-20T08:59:17.351Z,98252.50
2022-12-20T09:04:19.501Z,98262.75
2022-12-20T09:09:21.570Z,98250.13
2022-12-20T09:14:23.986Z,98244.78
2022-12-20T09:19:26.251Z,98242.00
2022-12-20T09:24:28.825Z,98245.09
2022-12-20T09:29:35.411Z,98252.78
2022-12-20T09:34:38.409Z,98252.03
2022-12-20T09:39:40.577Z,98238.88
2022-12-20T09:44:43.532Z,98236.38
2022-12-20T09:49:51.013Z,98231.84
2022-12-20T09:55:20.821Z,98217.16
2022-12-20T10:00:23.472Z,98219.78
2022-12-20T10:05:55.664Z,98217.91
2022-12-20T10:11:30.566Z,98195.50
2022-12-20T10:16:46.392Z,98210.00
2022-12-20T10:22:10.713Z,98204.41
2022-12-20T10:27:18.778Z,98194.94
2022-12-20T10:32:24.592Z,98196.75
2022-12-20T10:37:27.286Z,98175.38
2022-12-20T10:42:40.804Z,98170.72
2022-12-20T10:47:47.870Z,98183.03
2022-12-20T10:53:11.377Z,98188.06
2022-12-20T10:58:16.404Z,98171.69
2022-12-20T11:03:24.731Z,98157.34
2022-12-20T11:08:39.233Z,98155.06
2022-12-20T11:13:47.119Z,98147.50
2022-12-20T11:18:58.384Z,98149.06
2022-12-20T11:24:32.101Z,98135.59
2022-12-20T11:29:37.253Z,98133.50
2022-12-20T11:34:55.233Z,98132.31
2022-12-20T11:40:21.563Z,98126.78
2022-12-20T11:45:42.621Z,98115.66
2022-12-20T11:51:16.083Z,98109.03
2022-12-20T11:56:44.283Z,98105.88
2022-12-20T12:02:00.645Z,98096.75
2022-12-20T12:07:14.178Z,98108.38
2022-12-20T12:12:43.853Z,98087.97
2022-12-20T12:18:02.687Z,98093.25
2022-12-20T12:23:29.781Z,98082.03
2022-12-20T12:28:33.306Z,98081.56
2022-12-20T12:33:49.391Z,98078.56
2022-12-20T12:39:36.535Z,98063.63
2022-12-20T12:44:51.952Z,98066.19
2022-12-20T12:49:56.975Z,98060.81
2022-12-20T12:54:59.592Z,98038.63
2022-12-20T13:00:27.122Z,98011.84
2022-12-20T13:05:35.295Z,98034.41
2022-12-20T13:10:37.314Z,98008.69
2022-12-20T13:15:50.084Z,98015.66
2022-12-20T13:21:35.437Z,98017.53
2022-12-20T13:26:53.362Z,98016.69
2022-12-20T13:31:59.562Z,98012.69
2022-12-20T13:37:04.243Z,98003.59
2022-12-20T13:42:21.255Z,98029.13
2022-12-20T13:47:35.047Z,98010.13
2022-12-20T13:52:44.837Z,97999.91
2022-12-20T13:57:46.857Z,97994.69
2022-12-20T14:02:56.108Z,97989.28
2022-12-20T14:08:15.518Z,97986.25
2022-12-20T14:13:24.593Z,97979.78
2022-12-20T14:18:27.343Z,97979.44
2022-12-20T14:23:40.885Z,97970.91
2022-12-20T14:28:52.183Z,97955.94
2022-12-20T14:34:12.083Z,97956.03
2022-12-20T14:39:30.739Z,97959.38
2022-12-20T14:44:34.388Z,97962.28
2022-12-20T14:49:39.034Z,97968.56
2022-12-20T14:55:07.786Z,97978.81
2022-12-20T15:00:13.737Z,97958.38
2022-12-20T15:05:34.124Z,97950.59
2022-12-20T15:10:36.690Z,97949.06
2022-12-20T15:15:39.006Z,97948.22
2022-12-20T15:20:44.214Z,97929.69
2022-12-20T15:25:47.085Z,97943.88
2022-12-20T15:30:51.644Z,97944.19
2022-12-20T15:35:54.295Z,97926.47
2022-12-20T15:41:04.622Z,97950.03
2022-12-20T15:46:06.823Z,97938.47
2022-12-20T15:51:27.564Z,97940.84
2022-12-20T15:56:30.247Z,97942.84
2022-12-20T16:01:41.003Z,97933.88
2022-12-20T16:06:44.922Z,97951.00
2022-12-20T16:11:48.025Z,97943.94
2022-12-20T16:16:50.372Z,97940.47
2022-12-20T16:21:52.840Z,97931.56
2022-12-20T16:26:55.067Z,97938.59
2022-12-20T16:32:00.612Z,97935.56
2022-12-20T16:37:02.753Z,97943.94
2022-12-20T16:42:18.185Z,97941.59
2022-12-20T16:47:20.776Z,97957.25
2022-12-20T16:52:23.691Z,97949.63
2022-12-20T16:57:26.182Z,97947.94
2022-12-20T17:02:32.833Z,97952.53
2022-12-20T17:07:41.101Z,97936.72
2022-12-20T17:12:45.144Z,97944.88
2022-12-20T17:17:48.651Z,97939.44
2022-12-20T17:28:11.995Z,97938.69
2022-12-20T17:33:15.649Z,97923.50
2022-12-20T17:38:18.252Z,97937.84
2022-12-20T17:43:20.463Z,97910.63
2022-12-20T17:48:26.168Z,97905.41
2022-12-20T17:53:31.166Z,97901.78
2022-12-20T17:58:33.222Z,97872.94
2022-12-20T18:04:02.821Z,97878.78
2022-12-20T18:08:59.332Z,97872.66
2022-12-20T18:14:02.496Z,97873.59
2022-12-20T18:19:04.962Z,97875.69
2022-12-20T18:24:10.629Z,97878.19
2022-12-20T18:29:12.991Z,97894.50
2022-12-20T18:34:15.098Z,97889.94
2022-12-20T18:39:17.299Z,97882.50
2022-12-20T18:44:19.310Z,97876.22
2022-12-20T18:49:21.894Z,97876.50
2022-12-20T18:54:23.968Z,97884.72
2022-12-20T18:59:26.085Z,97887.94
2022-12-20T19:04:28.897Z,97889.44
2022-12-20T19:09:31.195Z,97887.16
2022-12-20T19:14:33.261Z,97884.38
2022-12-20T19:19:35.306Z,97886.34
2022-12-20T19:24:37.529Z,97882.50
2022-12-20T19:29:39.565Z,97879.78
2022-12-20T19:34:41.795Z,97873.88
2022-12-20T19:39:43.821Z,97874.91
2022-12-20T19:44:46.308Z,97876.34
2022-12-20T19:49:48.474Z,97859.13
2022-12-20T19:55:00.832Z,97841.50
2022-12-20T20:00:03.539Z,97846.84
2022-12-20T20:05:15.415Z,97841.31
2022-12-20T20:10:18.074Z,97841.06
2022-12-20T20:15:20.410Z,97837.56
2022-12-20T20:20:22.603Z,97842.94
2022-12-20T20:25:24.705Z,97860.88
2022-12-20T20:30:27.219Z,97865.84
2022-12-20T20:35:29.706Z,97871.38
2022-12-20T20:40:33.339Z,97885.75
2022-12-20T20:45:35.569Z,97897.47
2022-12-20T20:50:37.800Z,97903.47
2022-12-20T20:55:41.652Z,97907.97
2022-12-20T21:00:43.823Z,97908.47
2022-12-20T21:06:33.056Z,97927.81
2022-12-20T21:11:09.443Z,97921.78
2022-12-20T21:16:21.187Z,97919.53
2022-12-20T21:21:25.637Z,97931.16
2022-12-20T21:26:28.341Z,97926.00
2022-12-20T21:31:31.120Z,97898.38
2022-12-20T21:36:33.723Z,97909.22
2022-12-20T21:41:36.168Z,97899.47
2022-12-20T21:46:38.628Z,97889.63
2022-12-20T21:51:40.945Z,97883.81
2022-12-20T21:56:43.057Z,97885.44
2022-12-20T22:01:47.263Z,97878.47
2022-12-20T22:06:49.769Z,97888.28
2022-12-20T22:11:51.947Z,97890.13
2022-12-20T22:16:55.496Z,97904.25
2022-12-20T22:21:58.765Z,97898.09
2022-12-20T22:27:04.939Z,97905.19
2022-12-20T22:32:11.587Z,97905.56
2022-12-20T22:37:13.786Z,97898.25
2022-12-20T22:42:16.195Z,97900.22
2022-12-20T22:47:18.294Z,97902.50
2022-12-20T22:52:21.844Z,97903.06
2022-12-20T22:57:23.928Z,97910.38
2022-12-20T23:02:27.533Z,97895.47
2022-12-20T23:07:30.123Z,97897.63
2022-12-20T23:12:51.198Z,97883.63
2022-12-20T23:17:53.346Z,97883.63
2022-12-20T23:22:56.566Z,97874.38
2022-12-20T23:27:59.356Z,97877.53
2022-12-20T23:33:02.137Z,97871.38
2022-12-20T23:38:04.298Z,97868.25
2022-12-20T23:43:06.391Z,97865.06
2022-12-20T23:48:08.426Z,97868.09
2022-12-20T23:53:10.754Z,97870.94
2022-12-20T23:58:12.804Z,97868.38
